Aviation Digital Data Service (ADDS)

Output produced by METARs form (1346 UTC 21 November 2017)
found at http://www.aviationweather.gov/adds/metars/
 
KTHV 211253Z AUTO 00000KT 10SM CLR M01/M03 A3008 RMK AO2 SLP194 T10061028
KTHV 211153Z AUTO 00000KT 10SM CLR M03/M04 A3008 RMK AO2 SLP194 T10281044 10061 21033 53004
KTHV 211053Z AUTO 00000KT 10SM CLR M03/M05 A3008 RMK AO2 SLP194 T10281050
KTHV 210953Z AUTO 00000KT 10SM CLR 01/M04 A3007 RMK AO2 SLP189 T00111039
KTHV 210853Z AUTO 20006KT 10SM CLR 04/M04 A3007 RMK AO2 SLP188 T00441044 58013
KTHV 210753Z AUTO 20008KT 10SM CLR 05/M04 A3009 RMK AO2 SLP193 T00501044
KTHV 210653Z AUTO 21008KT 10SM CLR 06/M05 A3010 RMK AO2 SLP197 T00611050
KTHV 210553Z AUTO 21006KT 10SM CLR 06/M05 A3011 RMK AO2 SLP201 T00561050 10061 20011 58006
KTHV 210453Z AUTO 22005KT 10SM CLR 06/M05 A3012 RMK AO2 SLP205 T00561050 400780006
KTHV 210353Z AUTO 21006KT 10SM CLR 06/M05 A3013 RMK AO2 SLP209 T00561050
KTHV 210253Z AUTO 00000KT 10SM CLR 03/M05 A3013 RMK AO2 SLP209 T00331050 53001
KTHV 210153Z AUTO 19006KT 10SM CLR 05/M05 A3013 RMK AO2 SLP209 T00501050
KTHV 210053Z AUTO 19004KT 10SM CLR 04/M05 A3013 RMK AO2 SLP207 T00441050
KTHV 202353Z AUTO 20005KT 10SM CLR 05/M05 A3013 RMK AO2 SLP208 T00501050 10078 20039 55001
KTHV 202253Z AUTO 19004KT 10SM CLR 04/M04 A3013 RMK AO2 SLP208 T00441044
KTHV 202153Z AUTO 19003KT 10SM CLR 06/M04 A3012 RMK AO2 SLP207 T00561044
KTHV 202053Z AUTO 24006G15KT 10SM CLR 08/M06 A3013 RMK AO2 SLP208 T00781056 53004
KTHV 201953Z AUTO 26009KT 10SM CLR 08/M05 A3012 RMK AO2 SLP204 T00781050
KTHV 201853Z AUTO 24009KT 10SM CLR 07/M05 A3011 RMK AO2 SLP203 T00721050
KTHV 201753Z AUTO 23011G15KT 10SM CLR 07/M05 A3012 RMK AO2 SLP205 T00671050 10072 20011 58009
KTHV 201653Z AUTO 27010G14KT 230V290 10SM CLR 06/M06 A3013 RMK AO2 SLP210 T00561061
KTHV 201553Z AUTO 30009KT 10SM CLR 05/M05 A3015 RMK AO2 SLP215 T00501050
KTHV 201453Z AUTO 31008KT 10SM CLR 04/M06 A3015 RMK AO2 SLP214 T00391056 51016
KTHV 201353Z AUTO 27009KT 10SM CLR 03/M06 A3014 RMK AO2 SLP211 T00331061
KTHV 201253Z AUTO 26005KT 10SM SCT047 02/M07 A3013 RMK AO2 SLP210 T00171072
KTHV 201153Z AUTO 28011G17KT 10SM CLR 01/M07 A3010 RMK AO2 SLP199 T00111072 10028 20006 53030
KTHV 201053Z AUTO 27008KT 10SM CLR 01/M07 A3006 RMK AO2 SLP186 T00111072
KTHV 200953Z AUTO 28007KT 10SM CLR 01/M07 A3004 RMK AO2 SLP177 T00061072
KTHV 200853Z AUTO 27008KT 10SM CLR 01/M07 A3001 RMK AO2 SLP167 T00111067 51021
KTHV 200753Z AUTO 28011G18KT 10SM CLR 02/M06 A2999 RMK AO2 SLP161 T00171061
KTHV 200653Z AUTO 26004KT 10SM CLR 01/M05 A2997 RMK AO2 SLP153 T00111050
KTHV 200553Z AUTO 28008KT 10SM FEW039 BKN065 02/M04 A2995 RMK AO2 SLP146 T00221044 10044 20022 53023
KTHV 200453Z AUTO 28008G16KT 10SM CLR 03/M04 A2992 RMK AO2 SLP135 T00331044 401440028
KTHV 200353Z AUTO 28007KT 10SM SCT080 03/M03 A2989 RMK AO2 SLP127 T00331028
KTHV 200253Z AUTO 28008KT 10SM OVC080 04/M03 A2988 RMK AO2 SLP121 T00441028 53019
KTHV 200153Z AUTO 28010G16KT 10SM CLR 03/M03 A2985 RMK AO2 SLP115 T00331028